createdAt,value
2023-03-26T00:00:54.258Z,100099.75
2023-03-26T00:03:57.452Z,100101.53
2023-03-26T00:06:59.327Z,100098.06
2023-03-26T00:10:00.935Z,100110.53
2023-03-26T00:13:03.435Z,100107.06
2023-03-26T00:16:05.360Z,100119.44
2023-03-26T00:19:06.921Z,100120.28
2023-03-26T00:22:11.173Z,100124.63
2023-03-26T00:25:13.763Z,100129.06
2023-03-26T00:28:17.189Z,100130.88
2023-03-26T00:31:18.867Z,100131.91
2023-03-26T00:34:20.812Z,100134.66
2023-03-26T00:37:26.760Z,100139.94
2023-03-26T00:40:29.949Z,100142.69
2023-03-26T00:43:33.932Z,100141.84
2023-03-26T00:46:36.381Z,100138.44
2023-03-26T00:49:38.009Z,100140.16
2023-03-26T00:52:39.533Z,100148.09
2023-03-26T00:55:41.849Z,100151.69
2023-03-26T00:58:44.003Z,100149.97
2023-03-26T01:01:45.610Z,100149.13
2023-03-26T01:05:02.832Z,100149.97
2023-03-26T01:08:16.030Z,100151.84
2023-03-26T01:11:27.583Z,100155.53
2023-03-26T01:14:29.789Z,100159.16
2023-03-26T01:17:34.236Z,100144.41
2023-03-26T01:20:46.681Z,100155.94
2023-03-26T01:23:57.489Z,100145.63
2023-03-26T01:27:01.964Z,100150.16
2023-03-26T01:30:25.420Z,100151.13
2023-03-26T01:33:33.783Z,100146.88
2023-03-26T01:36:57.751Z,100149.50
2023-03-26T01:40:13.320Z,100149.50
2023-03-26T01:43:38.881Z,100155.75
2023-03-26T01:46:41.490Z,100161.88
2023-03-26T01:49:43.103Z,100150.56
2023-03-26T01:52:44.704Z,100153.28
2023-03-26T01:55:56.120Z,100151.50
2023-03-26T01:59:16.307Z,100149.78
2023-03-26T02:02:30.733Z,100157.72
2023-03-26T02:05:40.516Z,100155.16
2023-03-26T02:08:49.990Z,100153.56
2023-03-26T02:11:51.900Z,100162.53
2023-03-26T02:14:53.850Z,100154.78
2023-03-26T02:17:55.452Z,100148.84
2023-03-26T02:20:57.154Z,100145.44
2023-03-26T02:24:02.986Z,100145.63
2023-03-26T02:27:07.833Z,100148.34
2023-03-26T02:30:15.005Z,100144.88
2023-03-26T02:33:17.351Z,100149.31
2023-03-26T02:36:22.150Z,100133.50
2023-03-26T02:39:24.631Z,100139.66
2023-03-26T02:42:26.424Z,100142.22
2023-03-26T02:45:28.289Z,100138.81
2023-03-26T02:48:29.939Z,100144.94
2023-03-26T02:51:34.950Z,100144.00
2023-03-26T02:54:37.173Z,100137.00
2023-03-26T02:57:38.763Z,100144.00
2023-03-26T03:00:40.364Z,100144.00
2023-03-26T03:03:41.888Z,100139.66
2023-03-26T03:06:44.737Z,100143.06
2023-03-26T03:09:46.252Z,100137.00
2023-03-26T03:12:48.078Z,100139.59
2023-03-26T03:15:49.659Z,100133.59
2023-03-26T03:18:54.804Z,100134.63
2023-03-26T03:21:56.608Z,100135.53
2023-03-26T03:24:59.979Z,100131.28
2023-03-26T03:28:01.555Z,100138.69
2023-03-26T03:31:03.633Z,100139.72
2023-03-26T03:34:05.284Z,100137.16
2023-03-26T03:37:06.887Z,100135.47
2023-03-26T03:40:11.128Z,100131.09
2023-03-26T03:43:12.662Z,100137.25
2023-03-26T03:46:14.430Z,100140.94
2023-03-26T03:49:16.041Z,100138.47
2023-03-26T03:52:18.194Z,100136.75
2023-03-26T03:55:19.765Z,100139.59
2023-03-26T03:58:28.280Z,100144.09
2023-03-26T04:01:30.831Z,100134.50
2023-03-26T04:04:32.941Z,100135.34
2023-03-26T04:07:35.019Z,100135.34
2023-03-26T04:10:36.555Z,100136.28
2023-03-26T04:13:38.118Z,100137.19
2023-03-26T04:16:39.753Z,100133.72
2023-03-26T04:19:42.000Z,100139.94
2023-03-26T04:22:44.201Z,100127.59
2023-03-26T04:25:50.162Z,100128.50
2023-03-26T04:28:59.866Z,100131.16
2023-03-26T04:32:06.740Z,100132.94
2023-03-26T04:35:13.153Z,100130.41
2023-03-26T04:38:18.405Z,100134.84
2023-03-26T04:41:20.425Z,100132.28
2023-03-26T04:44:25.175Z,100135.78
2023-03-26T04:47:27.244Z,100133.97
2023-03-26T04:50:28.931Z,100134.94
2023-03-26T04:53:30.593Z,100135.00
2023-03-26T04:56:51.371Z,100132.38
2023-03-26T04:59:53.264Z,100129.81
2023-03-26T05:02:57.782Z,100128.22
2023-03-26T05:06:01.064Z,100125.56
2023-03-26T05:09:02.593Z,100122.06
2023-03-26T05:12:04.462Z,100118.59
2023-03-26T05:15:06.934Z,100126.53
2023-03-26T05:18:09.001Z,100116.88
2023-03-26T05:21:11.247Z,100125.69
2023-03-26T05:24:12.762Z,100118.69
2023-03-26T05:27:17.025Z,100123.09
2023-03-26T05:30:21.404Z,100126.72
2023-03-26T05:33:23.401Z,100126.72
2023-03-26T05:36:25.054Z,100132.00
2023-03-26T05:39:27.643Z,100128.38
2023-03-26T05:42:29.166Z,100129.25
2023-03-26T05:45:30.973Z,100132.63
2023-03-26T05:48:32.656Z,100138.44
2023-03-26T05:51:34.164Z,100126.84
2023-03-26T05:54:35.729Z,100128.50
2023-03-26T05:57:37.638Z,100124.84
2023-03-26T06:00:39.573Z,100128.34
2023-03-26T06:03:41.307Z,100125.69
2023-03-26T06:06:43.084Z,100136.28
2023-03-26T06:09:45.208Z,100132.69
2023-03-26T06:12:46.770Z,100138.91
2023-03-26T06:15:48.365Z,100137.13
2023-03-26T06:18:56.595Z,100130.06
2023-03-26T06:21:59.243Z,100135.41
2023-03-26T06:25:01.053Z,100138.06
2023-03-26T06:28:02.696Z,100143.50
2023-03-26T06:31:04.375Z,100147.00
2023-03-26T06:34:06.094Z,100136.53
2023-03-26T06:37:07.656Z,100148.16
2023-03-26T06:40:09.738Z,100146.44
2023-03-26T06:43:11.891Z,100138.59
2023-03-26T06:46:13.585Z,100150.97
2023-03-26T06:49:15.446Z,100149.25
2023-03-26T06:52:17.004Z,100145.84
2023-03-26T06:55:18.741Z,100156.44
2023-03-26T06:58:21.008Z,100154.75
2023-03-26T07:01:23.042Z,100152.09
2023-03-26T07:04:24.714Z,100160.03
2023-03-26T07:07:26.352Z,100161.72
2023-03-26T07:10:27.892Z,100154.75
2023-03-26T07:13:29.426Z,100155.50
2023-03-26T07:16:31.145Z,100157.38
2023-03-26T07:19:33.044Z,100153.78
2023-03-26T07:22:35.259Z,100155.41
2023-03-26T07:25:37.151Z,100149.19
2023-03-26T07:29:03.712Z,100146.53
2023-03-26T07:32:12.630Z,100141.91
2023-03-26T07:35:33.038Z,100150.63
2023-03-26T07:38:52.898Z,100145.97
2023-03-26T07:42:15.690Z,100146.84
2023-03-26T07:45:24.728Z,100139.03
2023-03-26T07:48:31.213Z,100147.78
2023-03-26T07:51:33.258Z,100146.75
2023-03-26T07:54:35.073Z,100139.50
2023-03-26T07:57:54.645Z,100145.47
2023-03-26T08:01:02.618Z,100132.03
2023-03-26T08:04:23.122Z,100136.13
2023-03-26T08:08:00.634Z,100135.66
2023-03-26T08:11:30.373Z,100136.34
2023-03-26T08:14:44.438Z,100136.94
2023-03-26T08:17:53.442Z,100137.41
2023-03-26T08:21:01.023Z,100142.50
2023-03-26T08:24:25.803Z,100150.34
2023-03-26T08:27:30.634Z,100148.66
2023-03-26T08:30:32.657Z,100142.50
2023-03-26T08:33:36.007Z,100140.63
2023-03-26T08:36:38.949Z,100145.72
2023-03-26T08:39:42.164Z,100144.47
2023-03-26T08:42:58.975Z,100149.41
2023-03-26T08:46:28.314Z,100145.34
2023-03-26T08:49:38.895Z,100146.97
2023-03-26T08:53:01.770Z,100150.19
2023-03-26T08:56:20.242Z,100153.47
2023-03-26T08:59:40.286Z,100143.25
2023-03-26T09:03:22.801Z,100150.91
2023-03-26T09:06:27.145Z,100152.41
2023-03-26T09:09:59.397Z,100153.94
2023-03-26T09:13:18.380Z,100158.19
2023-03-26T09:16:31.954Z,100150.97
2023-03-26T09:19:54.863Z,100156.94
2023-03-26T09:23:16.016Z,100156.66
2023-03-26T09:26:27.782Z,100164.19
2023-03-26T09:29:53.740Z,100163.69
2023-03-26T09:33:20.369Z,100163.47
2023-03-26T09:36:47.247Z,100162.63
2023-03-26T09:39:57.930Z,100161.03
2023-03-26T09:43:11.122Z,100159.22
2023-03-26T09:46:47.781Z,100156.47
2023-03-26T09:50:00.986Z,100158.53
2023-03-26T09:53:21.322Z,100162.16
2023-03-26T09:56:28.741Z,100164.22
2023-03-26T09:59:39.537Z,100171.88
2023-03-26T10:03:02.964Z,100176.44
2023-03-26T10:06:37.350Z,100176.63
2023-03-26T10:10:06.785Z,100171.31
2023-03-26T10:13:26.383Z,100174.63
2023-03-26T10:16:49.808Z,100178.03
2023-03-26T10:20:22.467Z,100176.88
2023-03-26T10:23:45.609Z,100169.19
2023-03-26T10:27:10.160Z,100176.78
2023-03-26T10:30:24.694Z,100168.59
2023-03-26T10:33:35.310Z,100167.88
2023-03-26T10:36:42.566Z,100172.03
2023-03-26T10:40:10.119Z,100173.91
2023-03-26T10:43:24.164Z,100173.31
2023-03-26T10:46:56.192Z,100176.91
2023-03-26T10:50:28.931Z,100182.63
2023-03-26T10:53:41.222Z,100179.56
2023-03-26T10:56:46.530Z,100172.00
2023-03-26T10:59:48.110Z,100170.75
2023-03-26T11:03:10.354Z,100166.28
2023-03-26T11:06:30.950Z,100164.16
2023-03-26T11:09:46.991Z,100171.16
2023-03-26T11:13:04.844Z,100171.59
2023-03-26T11:16:10.951Z,100174.44
2023-03-26T11:19:36.992Z,100171.84
2023-03-26T11:22:59.471Z,100170.56
2023-03-26T11:26:22.853Z,100181.84
2023-03-26T11:29:48.514Z,100180.44
2023-03-26T11:32:57.138Z,100175.56
2023-03-26T11:36:06.064Z,100183.13
2023-03-26T11:39:14.057Z,100180.28
2023-03-26T11:42:18.475Z,100180.09
2023-03-26T11:45:25.426Z,100173.81
2023-03-26T11:48:36.021Z,100174.63
2023-03-26T11:51:39.448Z,100167.91
2023-03-26T11:54:41.075Z,100167.47
2023-03-26T11:57:49.561Z,100164.63
2023-03-26T12:00:54.207Z,100168.44
2023-03-26T12:03:58.762Z,100167.13
2023-03-26T12:07:17.123Z,100156.22
2023-03-26T12:10:21.863Z,100166.84
2023-03-26T12:13:35.656Z,100173.78
2023-03-26T12:16:37.328Z,100170.19
2023-03-26T12:19:41.726Z,100175.59
2023-03-26T12:22:44.328Z,100170.75
2023-03-26T12:26:05.890Z,100170.13
2023-03-26T12:29:11.341Z,100176.50
2023-03-26T12:32:14.394Z,100170.97
2023-03-26T12:35:26.735Z,100163.84
2023-03-26T12:38:33.816Z,100166.22
2023-03-26T12:44:43.007Z,100171.38
2023-03-26T12:45:02.359Z,100163.81
2023-03-26T12:48:04.866Z,100169.66
2023-03-26T12:51:41.764Z,100162.94
2023-03-26T12:54:55.557Z,100174.59
2023-03-26T12:58:15.454Z,100181.41
2023-03-26T13:01:19.742Z,100169.50
2023-03-26T13:04:27.550Z,100173.34
2023-03-26T13:07:37.935Z,100175.78
2023-03-26T13:10:50.672Z,100181.59
2023-03-26T13:14:00.787Z,100176.69
2023-03-26T13:17:13.912Z,100182.41
2023-03-26T13:20:21.591Z,100183.22
2023-03-26T13:23:41.799Z,100177.69
2023-03-26T13:27:14.918Z,100188.13
2023-03-26T13:30:31.553Z,100171.72
2023-03-26T13:33:56.303Z,100182.88
2023-03-26T13:37:30.935Z,100182.53
2023-03-26T13:41:08.137Z,100183.97
2023-03-26T13:44:32.386Z,100184.75
2023-03-26T13:47:38.543Z,100182.78
2023-03-26T13:50:43.507Z,100180.56
2023-03-26T13:53:50.765Z,100186.50
2023-03-26T13:57:01.376Z,100183.75
2023-03-26T14:00:21.540Z,100190.41
2023-03-26T14:03:29.630Z,100184.31
2023-03-26T14:06:42.425Z,100193.22
2023-03-26T14:09:53.446Z,100184.19
2023-03-26T14:13:19.387Z,100186.72
2023-03-26T14:16:29.229Z,100194.16
2023-03-26T14:19:52.040Z,100194.59
2023-03-26T14:23:22.848Z,100196.06
2023-03-26T14:26:40.425Z,100206.31
2023-03-26T14:30:11.437Z,100206.63
2023-03-26T14:33:34.075Z,100207.06
2023-03-26T14:36:49.041Z,100204.31
2023-03-26T14:40:05.753Z,100205.03
2023-03-26T14:43:10.161Z,100211.63
2023-03-26T14:46:50.313Z,100211.09
2023-03-26T14:50:04.231Z,100211.09
2023-03-26T14:53:18.761Z,100213.22
2023-03-26T14:56:38.972Z,100218.00
2023-03-26T15:00:06.718Z,100218.97
2023-03-26T15:03:29.614Z,100224.47
2023-03-26T15:07:02.924Z,100231.06
2023-03-26T15:10:10.349Z,100233.28
2023-03-26T15:13:39.721Z,100229.34
2023-03-26T15:17:20.619Z,100231.34
2023-03-26T15:20:50.053Z,100236.97
2023-03-26T15:24:12.600Z,100235.25
2023-03-26T15:27:29.343Z,100244.81
2023-03-26T15:30:42.967Z,100237.56
2023-03-26T15:34:06.209Z,100246.91
2023-03-26T15:37:27.410Z,100239.25
2023-03-26T15:40:40.450Z,100259.84
2023-03-26T15:47:32.832Z,100257.22
2023-03-26T15:50:54.416Z,100256.88
2023-03-26T15:54:08.669Z,100260.84
2023-03-26T15:57:39.117Z,100262.09
2023-03-26T16:01:32.628Z,100267.03
2023-03-26T16:05:21.894Z,100262.97
2023-03-26T16:08:39.111Z,100273.13
2023-03-26T16:12:00.464Z,100275.22
2023-03-26T16:15:09.449Z,100286.75
2023-03-26T16:18:11.812Z,100281.63
2023-03-26T16:21:35.076Z,100290.63
2023-03-26T16:24:41.003Z,100290.06
2023-03-26T16:27:44.568Z,100293.00
2023-03-26T16:31:22.910Z,100300.69
2023-03-26T16:34:52.931Z,100304.84
2023-03-26T16:38:11.501Z,100306.84
2023-03-26T16:41:40.376Z,100305.41
2023-03-26T16:44:52.890Z,100314.47
2023-03-26T16:48:17.471Z,100314.09
2023-03-26T16:51:34.405Z,100318.03
2023-03-26T16:54:50.045Z,100326.47
2023-03-26T16:58:03.538Z,100333.88
2023-03-26T17:01:11.830Z,100326.34
2023-03-26T17:04:20.672Z,100338.78
2023-03-26T17:07:58.102Z,100340.94
2023-03-26T17:11:41.627Z,100347.53
2023-03-26T17:14:48.839Z,100350.63
2023-03-26T17:18:16.409Z,100358.22
2023-03-26T17:21:26.809Z,100357.94
2023-03-26T17:24:49.621Z,100363.59
2023-03-26T17:28:09.643Z,100369.16
2023-03-26T17:31:40.272Z,100372.97
2023-03-26T17:34:54.716Z,100376.81
2023-03-26T17:37:56.624Z,100378.09
2023-03-26T17:40:59.783Z,100383.72
2023-03-26T17:44:25.747Z,100387.56
2023-03-26T17:47:38.224Z,100394.19
2023-03-26T17:50:47.243Z,100396.13
2023-03-26T17:53:49.894Z,100399.97
2023-03-26T17:56:54.577Z,100409.19
2023-03-26T17:59:58.867Z,100416.19
2023-03-26T18:03:04.695Z,100419.06
2023-03-26T18:06:12.003Z,100418.38
2023-03-26T18:09:38.500Z,100423.31
2023-03-26T18:13:23.684Z,100428.22
2023-03-26T18:16:38.908Z,100440.03
2023-03-26T18:19:53.134Z,100440.25
2023-03-26T18:22:55.245Z,100442.13
2023-03-26T18:25:59.708Z,100449.44
2023-03-26T18:29:13.429Z,100449.00
2023-03-26T18:32:24.013Z,100455.28
2023-03-26T18:35:27.381Z,100458.06
2023-03-26T18:38:34.966Z,100460.84
2023-03-26T18:41:42.172Z,100463.78
2023-03-26T18:44:44.043Z,100469.44
2023-03-26T18:47:47.686Z,100466.19
2023-03-26T18:50:59.849Z,100474.34
2023-03-26T18:54:09.009Z,100481.56
2023-03-26T18:57:16.011Z,100483.56
2023-03-26T19:00:25.441Z,100489.91
2023-03-26T19:03:29.232Z,100488.38
2023-03-26T19:06:38.432Z,100491.16
2023-03-26T19:09:42.054Z,100500.00
2023-03-26T19:12:43.615Z,100496.50
2023-03-26T19:15:47.515Z,100495.78
2023-03-26T19:18:49.703Z,100494.16
2023-03-26T19:21:51.565Z,100501.28
2023-03-26T19:24:59.601Z,100496.09
2023-03-26T19:28:01.663Z,100504.16
2023-03-26T19:31:12.471Z,100505.22
2023-03-26T19:34:14.079Z,100503.66
2023-03-26T19:37:29.961Z,100508.97
2023-03-26T19:40:33.855Z,100511.75
2023-03-26T19:43:35.560Z,100515.47
2023-03-26T19:46:53.993Z,100518.16
2023-03-26T19:50:03.910Z,100518.38
2023-03-26T19:53:16.609Z,100524.66
2023-03-26T19:56:20.803Z,100530.06
2023-03-26T19:59:22.382Z,100539.81
2023-03-26T20:02:25.072Z,100542.53
2023-03-26T20:05:29.775Z,100549.72
2023-03-26T20:08:31.337Z,100548.03
2023-03-26T20:11:38.111Z,100552.56
2023-03-26T20:14:40.124Z,100551.84
2023-03-26T20:17:42.931Z,100558.03
2023-03-26T20:20:45.085Z,100558.19
2023-03-26T20:23:46.642Z,100564.31
2023-03-26T20:26:48.242Z,100570.50
2023-03-26T20:29:49.782Z,100572.91
2023-03-26T20:33:12.849Z,100570.94
2023-03-26T20:36:14.215Z,100581.47
2023-03-26T20:39:35.884Z,100585.91
2023-03-26T20:42:37.825Z,100582.56
2023-03-26T20:45:39.733Z,100599.28
2023-03-26T20:48:41.547Z,100598.56
2023-03-26T20:51:44.583Z,100603.88
2023-03-26T20:54:46.094Z,100608.38
2023-03-26T20:57:48.316Z,100611.13
2023-03-26T21:00:50.828Z,100609.44
2023-03-26T21:03:52.388Z,100616.50
2023-03-26T21:07:00.417Z,100621.75
2023-03-26T21:10:05.746Z,100628.94
2023-03-26T21:13:13.608Z,100635.25
2023-03-26T21:16:15.540Z,100632.75
2023-03-26T21:19:17.814Z,100638.09
2023-03-26T21:22:44.503Z,100637.31
2023-03-26T21:26:01.498Z,100642.59
2023-03-26T21:29:03.237Z,100647.91
2023-03-26T21:32:05.734Z,100647.97
2023-03-26T21:35:08.547Z,100655.88
2023-03-26T21:38:11.209Z,100649.88
2023-03-26T21:41:36.069Z,100670.94
2023-03-26T21:44:38.687Z,100676.38
2023-03-26T21:47:41.855Z,100670.28
2023-03-26T21:50:43.982Z,100676.50
2023-03-26T21:53:45.962Z,100681.88
2023-03-26T21:56:50.564Z,100684.44
2023-03-26T22:00:16.364Z,100688.88
2023-03-26T22:03:33.290Z,100696.81
2023-03-26T22:06:42.970Z,100691.66
2023-03-26T22:09:45.216Z,100692.66
2023-03-26T22:12:46.801Z,100698.94
2023-03-26T22:15:49.376Z,100700.56
2023-03-26T22:18:52.800Z,100713.72
2023-03-26T22:21:54.455Z,100715.44
2023-03-26T22:24:56.032Z,100718.94
2023-03-26T22:27:57.666Z,100720.84
2023-03-26T22:30:59.720Z,100727.94
2023-03-26T22:34:01.576Z,100733.28
2023-03-26T22:37:03.112Z,100737.88
2023-03-26T22:40:09.056Z,100738.78
2023-03-26T22:43:10.687Z,100744.22
2023-03-26T22:46:12.712Z,100747.91
2023-03-26T22:49:14.591Z,100753.28
2023-03-26T22:52:16.325Z,100762.22
2023-03-26T22:55:28.293Z,100768.53
2023-03-26T22:58:32.806Z,100769.56
2023-03-26T23:01:34.803Z,100772.38
2023-03-26T23:04:37.704Z,100782.16
2023-03-26T23:07:40.552Z,100783.19
2023-03-26T23:10:42.645Z,100780.66
2023-03-26T23:13:46.089Z,100784.31
2023-03-26T23:16:47.872Z,100787.13
2023-03-26T23:19:49.478Z,100791.66
2023-03-26T23:22:51.391Z,100795.28
2023-03-26T23:25:58.897Z,100800.78
2023-03-26T23:29:01.489Z,100805.38
2023-03-26T23:32:03.122Z,100796.81
2023-03-26T23:35:24.798Z,100798.66
2023-03-26T23:38:29.128Z,100805.75
2023-03-26T23:41:45.999Z,100806.78
2023-03-26T23:44:47.593Z,100812.16
2023-03-26T23:47:49.121Z,100814.97
2023-03-26T23:50:52.731Z,100816.06
2023-03-26T23:54:05.216Z,100818.72
2023-03-26T23:57:07.701Z,100815.34
